Time;durP1;ratioP1;P1;durP2;ratioP2;P2;SDS_P1;SDS_P2;PMS_P1;PMS_P2;Temp;Humidity;BMP_temperature;BMP_pressure;BME280_temperature;BME280_humidity;BME280_pressure;Samples;Min_cycle;Max_cycle;Signal;HPM_P1;HPM_P2
2022/11/17 00:02:12;;;;;;;0.00;0.00;;;;;;;7.61;100.00;96615.13;6193390;23;20015;-77
2022/11/17 00:04:38;;;;;;;0.00;0.00;;;;;;;7.54;100.00;96628.47;6217222;22;20012;-74
2022/11/17 00:07:03;;;;;;;0.00;0.00;;;;;;;7.46;100.00;96630.97;6220306;23;20003;-76
2022/11/17 00:09:34;;;;;;;0.00;0.00;;;;;;;7.41;100.00;96636.59;6219789;23;20474;-77
2022/11/17 00:14:43;;;;;;;0.00;0.00;;;;;;;7.54;100.00;96666.53;6222257;23;20011;-76
2022/11/17 00:17:13;;;;;;;0.00;0.00;;;;;;;7.50;100.00;96678.09;6224083;23;20008;-75
2022/11/17 00:22:31;;;;;;;0.00;0.00;;;;;;;7.45;100.00;96694.59;6251386;23;20027;-76
2022/11/17 00:24:56;;;;;;;0.00;0.00;;;;;;;7.44;100.00;96709.31;6222376;23;20015;-77
2022/11/17 00:27:22;;;;;;;0.00;0.00;;;;;;;7.39;100.00;96709.56;6225665;23;20095;-76
2022/11/17 00:29:50;;;;;;;0.08;0.08;;;;;;;7.38;100.00;96718.03;6249522;23;20339;-75
2022/11/17 00:35:02;;;;;;;0.00;0.00;;;;;;;7.37;100.00;96744.41;6225174;23;20069;-76
2022/11/17 00:37:32;;;;;;;0.00;0.00;;;;;;;7.36;100.00;96759.16;6248785;23;20072;-75
2022/11/17 00:39:57;;;;;;;0.00;0.00;;;;;;;7.34;100.00;96761.38;6220452;23;20012;-75
2022/11/17 00:42:25;;;;;;;0.00;0.00;;;;;;;7.26;100.00;96767.72;6194965;23;19996;-76
2022/11/17 00:44:51;;;;;;;0.08;0.08;;;;;;;7.30;100.00;96766.72;6220637;23;20011;-75
2022/11/17 00:47:16;;;;;;;0.00;0.00;;;;;;;7.25;100.00;96771.56;6195565;23;20597;-74
2022/11/17 00:49:44;;;;;;;0.00;0.00;;;;;;;7.22;100.00;96786.59;6249950;23;20423;-76
2022/11/17 00:52:09;;;;;;;0.00;0.00;;;;;;;7.26;100.00;96776.66;6249637;23;20008;-74
2022/11/17 00:54:36;;;;;;;0.00;0.00;;;;;;;7.27;100.00;96778.25;6198223;23;20098;-81
2022/11/17 00:57:05;;;;;;;0.00;0.00;;;;;;;7.24;100.00;96794.41;6200676;23;20034;-79
2022/11/17 00:59:30;;;;;;;0.10;0.10;;;;;;;7.15;100.00;96792.59;6197861;23;20000;-80
2022/11/17 01:01:56;;;;;;;0.00;0.00;;;;;;;7.15;100.00;96806.16;6174233;23;20004;-80
2022/11/17 01:04:24;;;;;;;0.00;0.00;;;;;;;7.11;100.00;96815.28;6197315;23;20009;-79
2022/11/17 01:06:49;;;;;;;0.00;0.00;;;;;;;7.10;100.00;96828.09;6198132;23;20008;-80
2022/11/17 01:09:21;;;;;;;0.00;0.00;;;;;;;7.08;100.00;96833.06;6251031;23;20004;-80
2022/11/17 01:11:48;;;;;;;0.10;0.10;;;;;;;7.07;100.00;96831.47;6199751;23;20004;-80
2022/11/17 01:14:17;;;;;;;0.00;0.00;;;;;;;7.02;100.00;96831.66;6226290;23;20046;-80
2022/11/17 01:16:43;;;;;;;0.00;0.00;;;;;;;7.04;100.00;96850.34;6224727;23;20055;-80
2022/11/17 01:19:10;;;;;;;0.00;0.00;;;;;;;7.05;100.00;96857.38;6229484;23;20095;-80
2022/11/17 01:21:38;;;;;;;0.05;0.05;;;;;;;7.02;100.00;96856.09;6201235;23;20027;-82
2022/11/17 01:24:15;;;;;;;0.00;0.00;;;;;;;6.97;100.00;96851.66;6226060;23;20319;-80
2022/11/17 01:26:43;;;;;;;0.00;0.00;;;;;;;6.97;100.00;96865.25;6224444;23;20023;-80
2022/11/17 01:29:11;;;;;;;0.00;0.00;;;;;;;6.96;100.00;96890.03;6226539;23;20004;-80
2022/11/17 01:31:43;;;;;;;0.00;0.00;;;;;;;6.96;100.00;96877.22;6225690;23;20524;-76
2022/11/17 01:34:11;;;;;;;0.00;0.00;;;;;;;6.94;100.00;96873.28;6227151;23;20029;-81
2022/11/17 01:39:28;;;;;;;0.10;0.10;;;;;;;7.04;100.00;96891.91;6232161;23;20074;-81
2022/11/17 01:41:54;;;;;;;0.00;0.00;;;;;;;7.07;100.00;96896.69;6200353;23;20071;-80
2022/11/17 01:45:00;;;;;;;0.00;0.00;;;;;;;7.05;100.00;96890.75;6224061;23;20008;-79
2022/11/17 01:47:41;;;;;;;0.00;0.00;;;;;;;7.08;100.00;96901.00;6172065;23;20043;-84
2022/11/17 01:50:23;;;;;;;0.00;0.00;;;;;;;7.10;100.00;96916.97;6230706;23;20055;-78
2022/11/17 01:53:00;;;;;;;0.00;0.00;;;;;;;7.11;100.00;96918.53;6222969;23;20008;-78
2022/11/17 01:55:43;;;;;;;0.20;0.20;;;;;;;7.08;100.00;96933.59;6226795;23;20008;-79
2022/11/17 01:58:24;;;;;;;0.00;0.00;;;;;;;7.10;100.00;96931.34;6226196;23;20423;-80
2022/11/17 02:00:52;;;;;;;0.10;0.10;;;;;;;7.02;100.00;96934.09;6235114;23;20000;-81
2022/11/17 02:03:39;;;;;;;;;;;;;;;;;;;;;
2022/11/17 02:06:10;;;;;;;0.00;0.00;;;;;;;7.01;100.00;96936.03;6252455;22;20403;-80
2022/11/17 02:08:48;;;;;;;0.00;0.00;;;;;;;6.99;100.00;96938.25;6226280;23;20062;-80
2022/11/17 02:11:21;;;;;;;0.00;0.00;;;;;;;7.03;100.00;96950.06;6224148;23;20003;-80
2022/11/17 02:13:49;;;;;;;0.00;0.00;;;;;;;7.01;100.00;96954.22;6227112;23;19996;-81
2022/11/17 02:16:24;;;;;;;0.00;0.00;;;;;;;6.82;100.00;96936.44;6224778;23;20016;-80
2022/11/17 02:18:56;;;;;;;0.00;0.00;;;;;;;6.86;100.00;96955.59;6226165;23;20000;-79
2022/11/17 02:22:15;;;;;;;0.00;0.00;;;;;;;6.87;100.00;96968.06;6223057;23;20008;-79
2022/11/17 02:24:58;;;;;;;0.00;0.00;;;;;;;6.81;100.00;96962.00;6225435;23;20019;-80
2022/11/17 02:27:29;;;;;;;0.00;0.00;;;;;;;6.87;100.00;96987.06;6225847;23;20012;-80
2022/11/17 02:30:04;;;;;;;0.00;0.00;;;;;;;6.86;100.00;96985.47;6225547;23;20023;-81
2022/11/17 02:32:51;;;;;;;0.00;0.00;;;;;;;6.87;100.00;96981.63;6227028;23;20103;-79
2022/11/17 02:35:32;;;;;;;0.00;0.00;;;;;;;6.91;100.00;96998.88;6223038;23;20016;-78
2022/11/17 02:38:35;;;;;;;0.00;0.00;;;;;;;6.91;100.00;97004.31;6225268;23;20008;-79
2022/11/17 02:41:35;;;;;;;0.03;0.03;;;;;;;6.91;100.00;97020.59;6249993;22;20031;-78
2022/11/17 02:44:16;;;;;;;0.00;0.00;;;;;;;6.89;100.00;97011.97;6229269;23;20090;-81
2022/11/17 02:46:59;;;;;;;0.00;0.00;;;;;;;6.87;100.00;97014.22;6226008;23;20062;-79
2022/11/17 02:49:37;;;;;;;2.30;0.30;;;;;;;6.94;100.00;97030.81;6228041;23;20026;-79
2022/11/17 02:52:05;;;;;;;0.00;0.00;;;;;;;6.96;100.00;97034.78;6225693;23;20007;-77
2022/11/17 02:54:31;;;;;;;0.10;0.10;;;;;;;6.98;100.00;97031.78;6248600;23;20054;-78
2022/11/17 02:57:02;;;;;;;0.00;0.00;;;;;;;6.97;100.00;97035.59;6226850;23;20315;-77
2022/11/17 02:59:34;;;;;;;0.10;0.10;;;;;;;6.96;100.00;97034.00;6224951;23;20000;-77
2022/11/17 03:02:06;;;;;;;0.00;0.00;;;;;;;6.95;100.00;97054.94;6225675;23;20074;-78
2022/11/17 03:04:55;;;;;;;0.00;0.00;;;;;;;7.00;100.00;97051.25;6225616;23;20708;-77
2022/11/17 03:07:41;;;;;;;0.00;0.00;;;;;;;7.04;100.00;97049.47;6248766;22;20000;-77
2022/11/17 03:10:19;;;;;;;0.00;0.00;;;;;;;7.02;100.00;97067.22;6253927;23;20028;-79
2022/11/17 03:12:59;;;;;;;0.00;0.00;;;;;;;7.03;100.00;97060.66;6221548;23;19998;-80
2022/11/17 03:15:45;;;;;;;0.00;0.00;;;;;;;6.98;100.00;97064.38;6227109;23;20028;-77
2022/11/17 03:18:49;;;;;;;0.00;0.00;;;;;;;7.05;100.00;97070.06;6226570;23;20047;-77
2022/11/17 03:21:29;;;;;;;0.00;0.00;;;;;;;7.02;100.00;97076.16;6191372;23;20019;-77
2022/11/17 03:24:11;;;;;;;0.00;0.00;;;;;;;7.06;100.00;97087.19;6226533;23;20016;-77
2022/11/17 03:26:41;;;;;;;0.00;0.00;;;;;;;7.03;100.00;97099.50;6223513;23;20008;-76
2022/11/17 03:29:11;;;;;;;0.00;0.00;;;;;;;7.14;100.00;97111.63;6225036;23;20011;-76
2022/11/17 03:31:39;;;;;;;0.00;0.00;;;;;;;7.10;100.00;97107.94;6223178;23;20011;-77
2022/11/17 03:34:09;;;;;;;0.00;0.00;;;;;;;7.10;100.00;97102.50;6226230;23;20008;-78
2022/11/17 03:36:45;;;;;;;0.00;0.00;;;;;;;7.10;100.00;97116.09;6223913;23;20054;-76
2022/11/17 03:39:22;;;;;;;0.00;0.00;;;;;;;7.16;100.00;97119.44;6225904;23;20427;-77
2022/11/17 03:41:50;;;;;;;0.00;0.00;;;;;;;7.22;100.00;97128.22;6252910;22;20055;-77
2022/11/17 03:44:21;;;;;;;0.00;0.00;;;;;;;7.25;100.00;97130.28;6252549;23;20062;-77
2022/11/17 03:46:49;;;;;;;0.00;0.00;;;;;;;7.26;100.00;97134.59;6226758;22;19992;-77
2022/11/17 03:49:38;;;;;;;0.00;0.00;;;;;;;7.24;100.00;97137.66;6227740;23;20012;-76
2022/11/17 03:52:04;;;;;;;0.10;0.10;;;;;;;7.21;100.00;97134.78;6225958;23;20012;-76
2022/11/17 03:54:33;;;;;;;0.00;0.00;;;;;;;7.26;100.00;97140.03;6255250;22;20072;-77
2022/11/17 03:57:15;;;;;;;8.50;4.25;;;;;;;7.26;100.00;97140.03;6173742;23;20008;-78
2022/11/17 04:00:08;;;;;;;0.00;0.00;;;;;;;7.25;100.00;97149.31;6252500;23;20008;-78
2022/11/17 04:02:39;;;;;;;0.00;0.00;;;;;;;7.28;100.00;97156.81;6223963;23;20087;-78
2022/11/17 04:05:04;;;;;;;0.00;0.00;;;;;;;7.28;100.00;97154.09;6199941;23;20435;-76
2022/11/17 04:07:52;;;;;;;0.00;0.00;;;;;;;7.27;100.00;97168.81;6220149;23;20050;-78
2022/11/17 04:10:20;;;;;;;0.00;0.00;;;;;;;7.25;100.00;97158.25;6224240;23;20012;-78
2022/11/17 04:18:19;;;;;;;0.00;0.00;;;;;;;7.25;100.00;97187.38;6229749;23;20472;-77
2022/11/17 04:20:48;;;;;;;0.00;0.00;;;;;;;7.21;100.00;97183.69;6224961;23;20000;-78
2022/11/17 04:23:16;;;;;;;0.00;0.00;;;;;;;7.19;100.00;97194.09;6254616;23;20009;-77
2022/11/17 04:28:37;;;;;;;0.00;0.00;;;;;;;7.14;100.00;97189.59;6255486;22;20011;-76
2022/11/17 04:31:09;;;;;;;0.10;0.10;;;;;;;7.09;100.00;97196.00;6223753;23;20093;-76
2022/11/17 04:33:35;;;;;;;0.00;0.00;;;;;;;7.05;100.00;97200.47;6225163;23;19984;-77
2022/11/17 04:36:02;;;;;;;0.00;0.00;;;;;;;7.02;100.00;97206.56;6224148;23;20062;-77
2022/11/17 04:38:27;;;;;;;0.00;0.00;;;;;;;7.01;100.00;97198.75;6227001;23;20014;-76
2022/11/17 04:43:46;;;;;;;0.00;0.00;;;;;;;6.96;100.00;97218.72;6253829;23;20506;-77
2022/11/17 04:46:11;;;;;;;0.00;0.00;;;;;;;6.92;100.00;97212.31;6176408;23;20008;-76
2022/11/17 04:48:37;;;;;;;0.00;0.00;;;;;;;6.88;100.00;97206.75;6175119;23;20007;-76
2022/11/17 04:51:03;;;;;;;0.00;0.00;;;;;;;6.97;100.00;97226.56;6202930;23;20012;-76
2022/11/17 04:53:28;;;;;;;0.00;0.00;;;;;;;7.00;100.00;97230.56;6229551;23;20000;-76
2022/11/17 04:55:59;;;;;;;0.00;0.00;;;;;;;7.02;100.00;97219.38;6203066;23;20008;-75
2022/11/17 04:58:35;;;;;;;0.05;0.05;;;;;;;7.05;100.00;97233.09;6227916;23;19988;-75
2022/11/17 05:01:12;;;;;;;0.10;0.10;;;;;;;6.98;100.00;97220.00;6204074;23;19989;-76
2022/11/17 05:03:45;;;;;;;0.00;0.00;;;;;;;6.89;100.00;97224.66;6202638;23;20012;-76
2022/11/17 05:06:13;;;;;;;0.00;0.00;;;;;;;6.79;100.00;97231.19;6227109;23;20074;-76
2022/11/17 05:08:39;;;;;;;0.00;0.00;;;;;;;6.69;100.00;97230.69;6253123;23;20007;-76
2022/11/17 05:13:51;;;;;;;0.00;0.00;;;;;;;6.69;100.00;97247.81;6229958;23;20200;-76
2022/11/17 05:19:04;;;;;;;0.00;0.00;;;;;;;6.73;100.00;97246.06;6252684;23;20495;-76
2022/11/17 05:21:30;;;;;;;0.00;0.00;;;;;;;6.76;100.00;97248.13;6226698;23;20149;-75
2022/11/17 05:23:56;;;;;;;0.00;0.00;;;;;;;6.85;100.00;97258.19;6201025;23;20091;-75
2022/11/17 05:26:26;;;;;;;0.00;0.00;;;;;;;6.93;100.00;97246.53;6253652;23;19984;-76
2022/11/17 05:28:57;;;;;;;0.00;0.00;;;;;;;6.87;100.00;97239.66;6226305;23;19992;-75
2022/11/17 05:31:24;;;;;;;0.00;0.00;;;;;;;6.86;100.00;97243.50;6226600;23;19988;-76
2022/11/17 05:33:54;;;;;;;0.10;0.10;;;;;;;6.86;100.00;97246.22;6201756;23;20087;-77
2022/11/17 05:36:21;;;;;;;0.40;0.40;;;;;;;6.96;100.00;97264.91;6252793;23;20448;-75
2022/11/17 05:38:49;;;;;;;0.00;0.00;;;;;;;7.03;100.00;97257.06;6227497;23;20015;-78
2022/11/17 05:41:21;;;;;;;1.48;0.80;;;;;;;7.10;100.00;97268.25;6200501;23;20123;-76
2022/11/17 05:43:52;;;;;;;0.00;0.00;;;;;;;7.24;100.00;97272.72;6225089;23;20371;-77
2022/11/17 05:46:18;;;;;;;0.00;0.00;;;;;;;7.33;100.00;97276.25;6223939;23;20004;-76
2022/11/17 05:48:49;;;;;;;0.00;0.00;;;;;;;7.36;100.00;97291.09;6224741;23;20008;-75
2022/11/17 05:51:22;;;;;;;0.00;0.00;;;;;;;7.36;100.00;97286.47;6223705;23;20387;-77
2022/11/17 05:53:50;;;;;;;0.08;0.08;;;;;;;7.36;100.00;97270.16;6201442;23;20063;-76
2022/11/17 05:56:38;;;;;;;0.00;0.00;;;;;;;7.39;100.00;97280.41;6223810;23;20933;-77
2022/11/17 05:59:17;;;;;;;0.00;0.00;;;;;;;7.27;100.00;97277.50;6225823;23;19996;-77
2022/11/17 06:02:07;;;;;;;0.00;0.00;;;;;;;7.21;100.00;97290.47;6227369;23;20605;-78
2022/11/17 06:04:33;;;;;;;0.00;0.00;;;;;;;7.11;100.00;97291.59;6255011;23;20000;-78
2022/11/17 06:07:00;;;;;;;0.00;0.00;;;;;;;7.06;100.00;97299.91;6227285;23;20032;-78
2022/11/17 06:09:27;;;;;;;0.10;0.10;;;;;;;7.00;100.00;97293.03;6227458;23;20019;-77
2022/11/17 06:11:53;;;;;;;0.00;0.00;;;;;;;7.11;100.00;97302.47;6255772;23;19996;-78
2022/11/17 06:14:21;;;;;;;0.10;0.10;;;;;;;7.20;100.00;97293.50;6178306;23;20010;-77
2022/11/17 06:16:49;;;;;;;0.00;0.00;;;;;;;7.29;100.00;97305.19;6201282;23;20053;-77
2022/11/17 06:19:26;;;;;;;0.43;0.43;;;;;;;7.22;100.00;97302.94;6220467;23;20089;-77
2022/11/17 06:21:52;;;;;;;0.10;0.10;;;;;;;7.18;100.00;97306.63;6220931;22;20435;-78
2022/11/17 06:24:18;;;;;;;0.00;0.00;;;;;;;7.13;100.00;97316.53;6193793;23;20035;-78
2022/11/17 06:26:45;;;;;;;0.00;0.00;;;;;;;7.07;100.00;97314.31;6229279;23;20007;-78
2022/11/17 06:29:11;;;;;;;0.00;0.00;;;;;;;7.09;100.00;97326.44;6204078;23;20419;-78
2022/11/17 06:31:41;;;;;;;0.10;0.10;;;;;;;7.08;100.00;97324.03;6229235;23;20015;-78
2022/11/17 06:34:08;;;;;;;0.10;0.10;;;;;;;7.08;100.00;97324.84;6181166;23;20331;-78
2022/11/17 06:36:41;;;;;;;0.75;0.43;;;;;;;7.05;100.00;97320.03;6230154;23;20012;-76
2022/11/17 06:39:09;;;;;;;0.00;0.00;;;;;;;6.97;100.00;97290.97;6230388;23;20008;-78
2022/11/17 06:41:35;;;;;;;0.10;0.10;;;;;;;6.99;100.00;97302.28;6229640;23;19996;-76
2022/11/17 06:44:01;;;;;;;0.00;0.00;;;;;;;7.06;100.00;97309.97;6226819;23;20042;-77
2022/11/17 06:46:36;;;;;;;0.10;0.10;;;;;;;7.07;100.00;97325.97;6177349;23;20012;-78
2022/11/17 06:49:06;;;;;;;0.00;0.00;;;;;;;7.07;100.00;97328.69;6202221;23;20653;-78
2022/11/17 06:51:33;;;;;;;0.20;0.20;;;;;;;7.03;100.00;97322.28;6199945;23;20008;-78
2022/11/17 06:53:58;;;;;;;0.10;0.10;;;;;;;6.99;100.00;97321.31;6226795;23;20047;-77
2022/11/17 06:56:24;;;;;;;2.95;1.27;;;;;;;6.98;100.00;97317.03;6200270;23;20378;-77
2022/11/17 06:58:49;;;;;;;0.00;0.00;;;;;;;6.98;100.00;97325.16;6227985;23;20018;-78
2022/11/17 07:01:15;;;;;;;0.00;0.00;;;;;;;7.01;100.00;97338.13;6204559;23;20411;-77
2022/11/17 07:03:44;;;;;;;0.15;0.15;;;;;;;6.95;100.00;97331.22;6223442;23;19988;-77
2022/11/17 07:06:10;;;;;;;0.00;0.00;;;;;;;6.93;100.00;97333.47;6227751;23;20011;-77
2022/11/17 07:08:37;;;;;;;0.05;0.05;;;;;;;6.98;100.00;97336.03;6222362;23;20083;-77
2022/11/17 07:11:04;;;;;;;0.00;0.00;;;;;;;6.96;100.00;97340.97;6221227;23;20024;-77
2022/11/17 07:13:34;;;;;;;0.10;0.10;;;;;;;6.90;100.00;97343.03;6248662;23;20483;-78
2022/11/17 07:16:09;;;;;;;0.20;0.20;;;;;;;6.92;100.00;97342.72;6248565;22;20053;-78
2022/11/17 07:18:40;;;;;;;0.00;0.00;;;;;;;6.90;100.00;97361.25;6223319;23;20027;-77
2022/11/17 07:21:14;;;;;;;1.13;0.55;;;;;;;6.90;100.00;97364.75;6248233;22;20070;-76
2022/11/17 07:23:43;;;;;;;;;;;;;;;6.88;100.00;97368.91;6250496;22;20012;-76
2022/11/17 07:26:09;;;;;;;0.00;0.00;;;;;;;6.89;100.00;97370.50;6247026;23;19933;-75
2022/11/17 07:28:35;;;;;;;0.10;0.10;;;;;;;6.86;100.00;97365.72;6224137;23;20422;-76
2022/11/17 07:31:05;;;;;;;0.10;0.10;;;;;;;6.85;100.00;97361.41;6219102;23;20015;-76
2022/11/17 07:33:31;;;;;;;0.93;0.32;;;;;;;6.81;100.00;97374.81;6250283;22;20058;-77
2022/11/17 07:36:29;;;;;;;0.10;0.10;;;;;;;6.78;100.00;97372.75;6245656;22;20434;-76
2022/11/17 07:38:54;;;;;;;0.10;0.10;;;;;;;6.79;100.00;97375.13;6224635;23;20004;-75
2022/11/17 07:41:19;;;;;;;1.65;0.85;;;;;;;6.80;100.00;97379.47;6193120;23;20461;-76
2022/11/17 07:43:45;;;;;;;0.55;0.55;;;;;;;6.84;100.00;97384.25;6221216;23;20004;-77
2022/11/17 07:46:12;;;;;;;0.00;0.00;;;;;;;6.87;100.00;97389.06;6172270;23;20008;-77
2022/11/17 07:48:39;;;;;;;0.10;0.10;;;;;;;6.88;100.00;97396.06;6221191;23;20007;-76
2022/11/17 07:51:05;;;;;;;0.00;0.00;;;;;;;6.91;100.00;97395.47;6219868;23;20082;-76
2022/11/17 07:53:34;;;;;;;0.10;0.10;;;;;;;6.91;100.00;97393.53;6247046;23;20004;-75
2022/11/17 07:56:09;;;;;;;0.00;0.00;;;;;;;6.97;100.00;97392.28;6246653;23;19999;-76
2022/11/17 07:58:35;;;;;;;0.00;0.00;;;;;;;7.02;100.00;97399.47;6221021;23;20000;-76
2022/11/17 08:01:10;;;;;;;0.00;0.00;;;;;;;7.02;100.00;97391.31;6198777;23;20085;-76
2022/11/17 08:03:35;;;;;;;;;;;;;;;7.13;100.00;97402.69;6220079;22;20015;-75
2022/11/17 08:06:04;;;;;;;0.00;0.00;;;;;;;7.18;100.00;97404.47;6200073;23;20319;-77
2022/11/17 08:08:30;;;;;;;0.10;0.10;;;;;;;7.18;100.00;97404.47;6225892;23;20004;-78
2022/11/17 08:11:00;;;;;;;0.10;0.10;;;;;;;7.21;100.00;97406.53;6248126;22;20004;-79
2022/11/17 08:13:35;;;;;;;0.00;0.00;;;;;;;7.24;100.00;97411.34;6201943;23;20012;-80
2022/11/17 08:16:39;;;;;;;;;;;;;;;;;;;;;
2022/11/17 08:19:10;;;;;;;0.00;0.00;;;;;;;7.39;100.00;97410.88;6227534;22;20022;-80
2022/11/17 08:25:02;;;;;;;;;;;;;;;;;;;;;
2022/11/17 08:27:28;;;;;;;2.83;0.90;;;;;;;7.48;100.00;97408.97;6223542;23;20394;-79
2022/11/17 08:30:06;;;;;;;0.08;0.08;;;;;;;7.59;100.00;97419.53;6222907;23;20008;-80
2022/11/17 08:32:36;;;;;;;0.00;0.00;;;;;;;7.58;100.00;97412.47;6197199;23;20004;-80
2022/11/17 08:35:22;;;;;;;0.00;0.00;;;;;;;7.63;100.00;97415.84;6224954;23;20011;-80
2022/11/17 08:37:48;;;;;;;0.00;0.00;;;;;;;7.66;100.00;97419.84;6216610;23;20004;-81
2022/11/17 08:40:14;;;;;;;0.03;0.03;;;;;;;7.67;100.00;97422.25;6224226;23;20082;-81
2022/11/17 08:42:49;;;;;;;;;;;;;;;;;;;;;
2022/11/17 08:45:31;;;;;;;0.00;0.00;;;;;;;7.78;100.00;97430.91;6254769;22;20047;-82
2022/11/17 08:48:06;;;;;;;0.00;0.00;;;;;;;7.80;100.00;97412.31;6227801;23;20024;-82
2022/11/17 08:50:35;;;;;;;0.00;0.00;;;;;;;7.86;100.00;97423.84;6226655;23;20008;-82
2022/11/17 08:53:00;;;;;;;0.00;0.00;;;;;;;7.90;100.00;97424.00;6219891;23;20026;-81
2022/11/17 08:55:26;;;;;;;0.00;0.00;;;;;;;8.14;100.00;97429.72;6224865;23;20060;-84
2022/11/17 08:58:07;;;;;;;;;;;;;;;;;;;;;
2022/11/17 09:00:32;;;;;;;0.57;0.20;;;;;;;12.29;100.00;97442.25;6249610;22;20027;-79
2022/11/17 09:03:05;;;;;;;0.00;0.00;;;;;;;13.32;100.00;97450.72;6223189;23;20012;-83
2022/11/17 09:05:34;;;;;;;0.00;0.00;;;;;;;14.28;100.00;97442.13;6200862;23;20541;-83
2022/11/17 09:08:09;;;;;;;0.57;0.30;;;;;;;14.87;96.99;97447.56;6226675;23;20048;-83
2022/11/17 09:10:37;;;;;;;0.10;0.10;;;;;;;15.50;99.12;97462.69;6225025;23;20029;-82
2022/11/17 09:13:13;;;;;;;;;;;;;;;;;;;;;
2022/11/17 09:16:07;;;;;;;0.00;0.00;;;;;;;17.04;94.15;97458.25;6224526;22;20019;-79
2022/11/17 09:18:47;;;;;;;0.00;0.00;;;;;;;17.27;92.42;97460.78;6249898;22;20008;-78
2022/11/17 09:21:17;;;;;;;0.00;0.00;;;;;;;17.54;93.07;97462.56;6221098;23;19999;-79
2022/11/17 09:23:43;;;;;;;0.10;0.10;;;;;;;17.77;90.69;97454.78;6200628;23;20105;-81
2022/11/17 09:26:28;;;;;;;0.10;0.10;;;;;;;17.95;84.84;97454.91;6223801;23;20016;-87
2022/11/17 09:29:10;;;;;;;0.00;0.00;;;;;;;17.63;85.70;97466.53;6226127;23;20032;-82
2022/11/17 09:31:43;;;;;;;0.32;0.32;;;;;;;18.15;84.35;97479.50;6197810;23;20512;-82
2022/11/17 09:34:12;;;;;;;0.00;0.00;;;;;;;18.22;87.37;97473.97;6174701;23;20091;-81
2022/11/17 09:36:37;;;;;;;0.65;0.08;;;;;;;18.57;81.18;97483.56;6199087;23;20023;-80
2022/11/17 09:39:10;;;;;;;0.00;0.00;;;;;;;18.42;81.30;97479.19;6174702;23;20012;-84
2022/11/17 09:41:45;;;;;;;0.00;0.00;;;;;;;16.99;91.25;97488.16;6197285;23;20024;-81
2022/11/17 09:44:42;;;;;;;;;;;;;;;;;;;;;
2022/11/17 09:47:55;;;;;;;0.00;0.00;;;;;;;19.07;77.78;97509.81;6252741;22;20035;-85
2022/11/17 09:50:29;;;;;;;0.00;0.00;;;;;;;19.43;82.00;97510.63;6228339;22;19992;-83
2022/11/17 09:53:21;;;;;;;0.00;0.00;;;;;;;19.17;81.81;97503.50;6223453;23;20061;-84
2022/11/17 09:56:11;;;;;;;2.10;1.20;;;;;;;20.29;84.99;97511.69;6226868;23;20001;-86
2022/11/17 09:58:49;;;;;;;0.17;0.17;;;;;;;21.00;75.72;97513.34;6226543;23;20002;-84
2022/11/17 10:01:18;;;;;;;0.00;0.00;;;;;;;20.96;77.44;97517.34;6228536;23;20016;-83
2022/11/17 10:03:52;;;;;;;0.10;0.10;;;;;;;21.31;78.96;97523.84;6223878;23;20024;-88
2022/11/17 10:06:51;;;;;;;0.10;0.10;;;;;;;21.95;70.58;97525.28;6199292;23;20088;-79
2022/11/17 10:09:42;;;;;;;0.00;0.00;;;;;;;21.74;71.25;97531.84;6199919;23;20015;-79
2022/11/17 10:12:18;;;;;;;0.00;0.00;;;;;;;21.73;78.98;97531.06;6223473;23;20018;-77
2022/11/17 10:14:45;;;;;;;0.52;0.47;;;;;;;21.84;69.58;97535.72;6223647;23;19987;-78
2022/11/17 10:17:12;;;;;;;0.00;0.00;;;;;;;21.59;68.54;97518.06;6223850;23;20431;-79
2022/11/17 10:19:44;;;;;;;0.20;0.20;;;;;;;19.73;70.63;97534.38;6177256;23;20012;-80
2022/11/17 10:25:07;;;;;;;;;;;;;;;;;;;;;
2022/11/17 10:28:16;;;;;;;0.00;0.00;;;;;;;22.40;73.71;97532.75;6228831;23;20042;-85
2022/11/17 10:31:02;;;;;;;;;;;;;;;;;;;;;
2022/11/17 10:34:37;;;;;;;;;;;;;;;;;;;;;
2022/11/17 10:51:32;;;;;;;;;;;;;;;;;;;;;
2022/11/17 10:54:18;;;;;;;0.20;0.20;;;;;;;13.78;85.89;97557.28;6066812;23;20038;-81
2022/11/17 10:56:58;;;;;;;0.00;0.00;;;;;;;12.99;92.35;97553.38;6162797;23;20373;-83
2022/11/17 11:02:40;;;;;;;0.00;0.00;;;;;;;11.33;93.14;97545.81;6238746;22;20005;-85
2022/11/17 11:05:08;;;;;;;0.00;0.00;;;;;;;10.94;95.41;97569.91;6228306;23;20068;-86
2022/11/17 11:10:49;;;;;;;1.10;0.55;;;;;;;10.89;100.00;97561.13;6188983;23;20038;-81
2022/11/17 11:13:44;;;;;;;;;;;;;;;;;;;;;
2022/11/17 11:16:23;;;;;;;;;;;;;;;;;;;;;
2022/11/17 11:18:51;;;;;;;0.00;0.00;;;;;;;20.84;90.97;97566.59;6229374;22;20453;-80
2022/11/17 11:21:49;;;;;;;;;;;;;;;;;;;;;
2022/11/17 11:24:37;;;;;;;;;;;;;;;;;;;;;
2022/11/17 11:31:06;;;;;;;;;;;;;;;;;;;;;
2022/11/17 11:34:14;;;;;;;0.10;0.10;;;;;;;12.26;96.19;97570.94;6021707;23;20039;-80
2022/11/17 11:39:50;;;;;;;0.00;0.00;;;;;;;13.03;100.00;97567.97;6224112;23;20027;-79
2022/11/17 11:46:22;;;;;;;;;;;;;;;;;;;;;
2022/11/17 11:55:54;;;;;;;0.00;0.00;;;;;;;15.93;85.36;97567.22;6226928;22;20020;-82
2022/11/17 11:58:24;;;;;;;0.80;0.80;;;;;;;14.79;92.51;97568.47;6227615;23;20451;-80
2022/11/17 12:01:14;;;;;;;0.00;0.00;;;;;;;13.59;91.69;97560.75;6224960;23;20035;-83
2022/11/17 12:04:30;;;;;;;0.00;0.00;;;;;;;12.57;92.89;97578.47;6224433;23;20054;-82
2022/11/17 12:07:29;;;;;;;0.00;0.00;;;;;;;13.93;88.99;97555.63;6227194;23;20000;-83
2022/11/17 12:10:48;;;;;;;;;;;;;;;;;;;;;
2022/11/17 12:13:17;;;;;;;0.00;0.00;;;;;;;16.88;89.78;97568.88;6219774;23;20028;-77
2022/11/17 12:15:57;;;;;;;;;;;;;;;;;;;;;
2022/11/17 12:19:11;;;;;;;;;;;;;;;;;;;;;
2022/11/17 12:21:48;;;;;;;0.00;0.00;;;;;;;22.18;76.72;97565.59;6253477;23;20447;-84
2022/11/17 12:25:33;;;;;;;;;;;;;;;;;;;;;
2022/11/17 12:28:36;;;;;;;;;;;;;;;;;;;;;
2022/11/17 12:31:30;;;;;;;;;;;;;;;;;;;;;
2022/11/17 12:34:18;;;;;;;;;;;;;;;;;;;;;
2022/11/17 12:37:41;;;;;;;0.00;0.00;;;;;;;29.17;61.01;97602.91;6156275;23;20025;-82
2022/11/17 12:40:01;;;;;;;0.00;0.00;;;;;;;29.74;58.54;97596.28;6227717;23;20038;-82
2022/11/17 12:42:29;;;;;;;0.00;0.00;;;;;;;30.65;62.29;97605.38;6222885;23;19988;-80
2022/11/17 12:45:16;;;;;;;0.00;0.00;;;;;;;28.82;49.69;97599.41;6220985;22;20084;-81
2022/11/17 12:47:46;;;;;;;0.00;0.00;;;;;;;26.19;73.48;97593.56;6222307;23;20098;-81
2022/11/17 12:50:37;;;;;;;0.00;0.00;;;;;;;24.54;70.30;97588.41;6222621;23;19996;-80
2022/11/17 12:53:23;;;;;;;0.00;0.00;;;;;;;21.07;71.50;97596.63;6221360;23;20008;-79
2022/11/17 12:56:03;;;;;;;0.00;0.00;;;;;;;18.31;80.46;97585.06;6222135;22;20012;-76
2022/11/17 12:58:55;;;;;;;0.00;0.00;;;;;;;16.83;86.25;97594.00;6241471;23;20007;-77
2022/11/17 13:01:23;;;;;;;0.00;0.00;;;;;;;16.33;94.20;97585.13;6218781;23;20008;-78
2022/11/17 13:04:05;;;;;;;0.00;0.00;;;;;;;15.67;96.39;97582.56;6198180;23;20008;-76
2022/11/17 13:06:31;;;;;;;0.00;0.00;;;;;;;15.49;96.03;97574.00;6208888;23;20004;-76
2022/11/17 13:09:06;;;;;;;0.00;0.00;;;;;;;17.16;94.93;97577.84;6219085;23;20385;-76
2022/11/17 13:11:37;;;;;;;0.00;0.00;;;;;;;17.31;86.70;97571.28;6242075;23;20011;-76
2022/11/17 13:14:20;;;;;;;0.00;0.00;;;;;;;17.06;86.92;97582.09;6206048;23;20083;-76
2022/11/17 13:16:50;;;;;;;0.00;0.00;;;;;;;16.97;90.00;97590.66;6199463;23;20087;-76
2022/11/17 13:19:42;;;;;;;0.08;0.08;;;;;;;15.68;81.33;97589.66;6223465;23;20080;-74
2022/11/17 13:22:12;;;;;;;0.00;0.00;;;;;;;14.27;83.33;97576.03;6215221;23;20068;-75
2022/11/17 13:24:39;;;;;;;0.00;0.00;;;;;;;15.79;83.95;97590.66;6217467;23;20008;-74
2022/11/17 13:27:22;;;;;;;0.00;0.00;;;;;;;15.07;84.95;97578.41;6193688;23;20441;-74
2022/11/17 13:29:47;;;;;;;0.00;0.00;;;;;;;14.59;89.47;97599.88;6222320;23;20409;-76
2022/11/17 13:32:16;;;;;;;0.00;0.00;;;;;;;15.28;91.10;97589.00;6193744;23;20008;-75
2022/11/17 13:34:58;;;;;;;0.00;0.00;;;;;;;19.00;85.91;97600.00;6240636;23;20000;-74
2022/11/17 13:37:26;;;;;;;0.00;0.00;;;;;;;21.52;79.79;97603.50;6217299;23;20027;-74
2022/11/17 13:39:57;;;;;;;0.00;0.00;;;;;;;23.10;76.86;97601.94;6242678;23;20042;-74
2022/11/17 13:42:26;;;;;;;0.00;0.00;;;;;;;24.09;72.76;97611.19;6220241;23;20050;-74
2022/11/17 13:45:00;;;;;;;0.00;0.00;;;;;;;24.21;58.52;97616.16;6210019;23;20036;-75
2022/11/17 13:47:46;;;;;;;0.10;0.10;;;;;;;23.58;68.23;97627.94;6219818;23;20061;-74
2022/11/17 13:50:29;;;;;;;0.90;0.73;;;;;;;23.26;72.54;97620.03;6242563;23;20058;-73
2022/11/17 13:53:03;;;;;;;0.00;0.00;;;;;;;23.40;64.05;97624.63;6217272;23;20458;-73
2022/11/17 13:55:32;;;;;;;0.00;0.00;;;;;;;23.37;72.20;97623.47;6243327;23;20403;-73